createdAt,value
2019-04-07T00:02:08.629Z,86.61
2019-04-07T00:07:04.064Z,85.41
2019-04-07T00:11:59.123Z,87.85
2019-04-07T00:16:54.139Z,87.67
2019-04-07T00:21:48.764Z,87.76
2019-04-07T00:26:43.380Z,88.18
2019-04-07T00:31:38.597Z,88.57
2019-04-07T00:36:34.111Z,87.15
2019-04-07T00:41:28.785Z,87.52
2019-04-07T00:46:23.410Z,88.03
2019-04-07T00:51:17.966Z,88.43
2019-04-07T00:56:13.141Z,88.97
2019-04-07T01:01:09.126Z,88.78
2019-04-07T01:06:03.801Z,88.90
2019-04-07T01:10:58.602Z,87.79
2019-04-07T01:15:53.764Z,86.96
2019-04-07T01:20:48.624Z,88.13
2019-04-07T01:25:43.219Z,86.74
2019-04-07T01:30:37.892Z,86.67
2019-04-07T01:35:32.983Z,87.65
2019-04-07T01:40:27.829Z,87.93
2019-04-07T01:45:24.142Z,87.88
2019-04-07T01:50:26.449Z,87.53
2019-04-07T01:55:29.942Z,87.76
2019-04-07T02:00:42.916Z,88.35
2019-04-07T02:05:59.820Z,88.65
2019-04-07T02:10:51.629Z,89.11
2019-04-07T02:16:04.933Z,88.86
2019-04-07T02:21:02.137Z,89.06
2019-04-07T02:25:59.294Z,89.90
2019-04-07T02:30:56.168Z,90.31
2019-04-07T02:35:56.036Z,90.06
2019-04-07T02:40:55.872Z,90.18
2019-04-07T02:45:57.990Z,89.51
2019-04-07T02:50:54.940Z,88.30
2019-04-07T02:56:06.603Z,89.03
2019-04-07T03:01:09.650Z,89.48
2019-04-07T03:06:37.487Z,88.56
2019-04-07T03:11:32.400Z,89.15
2019-04-07T03:16:26.755Z,89.74
2019-04-07T03:21:32.967Z,89.46
2019-04-07T03:26:27.383Z,89.02
2019-04-07T03:31:27.376Z,88.08
2019-04-07T03:36:28.489Z,87.44
2019-04-07T03:41:25.722Z,87.83
2019-04-07T03:46:25.297Z,87.41
2019-04-07T03:51:37.763Z,87.21
2019-04-07T03:56:46.106Z,86.91
2019-04-07T04:01:59.167Z,87.06
2019-04-07T04:07:22.376Z,86.68
2019-04-07T04:12:15.046Z,86.39
2019-04-07T04:17:09.682Z,85.76
2019-04-07T04:22:04.261Z,84.99
2019-04-07T04:26:59.200Z,84.72
2019-04-07T04:31:54.666Z,84.49
2019-04-07T04:36:50.222Z,84.25
2019-04-07T04:41:45.041Z,85.06
2019-04-07T04:46:39.632Z,86.70
2019-04-07T04:51:37.011Z,86.36
2019-04-07T04:56:30.972Z,86.99
2019-04-07T05:01:26.466Z,88.51
2019-04-07T05:06:21.409Z,88.58
2019-04-07T05:11:15.978Z,87.83
2019-04-07T05:16:10.647Z,86.67
2019-04-07T05:21:05.280Z,85.87
2019-04-07T05:26:00.424Z,85.86
2019-04-07T05:30:55.055Z,85.71
2019-04-07T05:35:49.665Z,85.80
2019-04-07T05:40:44.850Z,86.06
2019-04-07T05:45:39.995Z,85.92
2019-04-07T05:50:34.975Z,85.05
2019-04-07T05:55:30.423Z,83.99
2019-04-07T06:00:26.005Z,83.33
2019-04-07T06:05:21.242Z,82.80
2019-04-07T06:10:16.632Z,81.14
2019-04-07T06:15:17.710Z,81.10
2019-04-07T06:20:14.250Z,79.62
2019-04-07T06:25:09.580Z,78.62
2019-04-07T06:30:08.456Z,77.91
2019-04-07T06:35:03.876Z,76.68
2019-04-07T06:39:59.244Z,76.30
2019-04-07T06:44:54.293Z,74.12
2019-04-07T06:49:53.589Z,73.63
2019-04-07T06:54:56.029Z,72.53
2019-04-07T06:59:50.463Z,71.80
2019-04-07T07:04:49.761Z,71.35
2019-04-07T07:09:57.966Z,71.78
2019-04-07T07:15:03.651Z,71.53
2019-04-07T07:20:06.800Z,72.34
2019-04-07T07:25:01.604Z,71.25
2019-04-07T07:29:56.582Z,70.03
2019-04-07T07:34:52.083Z,68.61
2019-04-07T07:39:47.518Z,66.08
2019-04-07T07:44:42.693Z,64.40
2019-04-07T07:49:40.281Z,62.74
2019-04-07T07:54:35.102Z,62.13
2019-04-07T07:59:33.534Z,62.68
2019-04-07T08:04:26.972Z,62.12
2019-04-07T08:09:25.723Z,63.22
2019-04-07T08:14:19.710Z,63.05
2019-04-07T08:19:14.635Z,62.98
2019-04-07T08:24:10.114Z,62.11
2019-04-07T08:29:06.840Z,60.72
2019-04-07T08:34:02.223Z,60.69
2019-04-07T08:38:57.182Z,60.56
2019-04-07T08:43:55.319Z,61.23
2019-04-07T08:48:51.843Z,61.18
2019-04-07T08:53:45.110Z,61.25
2019-04-07T08:58:40.143Z,61.79
2019-04-07T09:03:35.785Z,61.26
2019-04-07T09:08:30.728Z,60.92
2019-04-07T09:13:25.325Z,59.75
2019-04-07T09:18:21.557Z,59.38
2019-04-07T09:23:17.792Z,59.36
2019-04-07T09:28:21.189Z,55.69
2019-04-07T09:33:21.596Z,54.49
2019-04-07T09:38:24.955Z,54.57
2019-04-07T09:43:19.952Z,54.07
2019-04-07T09:48:21.776Z,55.24
2019-04-07T09:53:21.385Z,55.44
2019-04-07T09:58:23.960Z,55.48
2019-04-07T10:03:38.088Z,56.71
2019-04-07T10:08:37.380Z,56.05
2019-04-07T10:13:39.831Z,55.82
2019-04-07T10:18:52.275Z,56.87
2019-04-07T10:24:05.261Z,57.60
2019-04-07T10:29:01.829Z,57.02
2019-04-07T10:34:13.448Z,56.26
2019-04-07T10:39:17.530Z,56.00
2019-04-07T10:44:29.217Z,54.16
2019-04-07T10:49:26.196Z,52.46
2019-04-07T10:54:23.347Z,52.41
2019-04-07T10:59:23.879Z,52.72
2019-04-07T11:04:23.068Z,53.90
2019-04-07T11:09:17.820Z,53.99
2019-04-07T11:14:12.303Z,53.22
2019-04-07T11:19:12.983Z,52.48
2019-04-07T11:24:12.339Z,53.52
2019-04-07T11:29:17.749Z,53.90
2019-04-07T11:34:17.397Z,55.04
2019-04-07T11:39:32.696Z,54.94
2019-04-07T11:44:30.039Z,54.26
2019-04-07T11:49:31.979Z,53.64
2019-04-07T11:54:33.938Z,52.00
2019-04-07T11:59:39.658Z,50.29
2019-04-07T12:04:41.757Z,50.33
2019-04-07T12:09:39.523Z,49.26
2019-04-07T12:14:51.292Z,49.01
2019-04-07T12:19:46.305Z,48.63
2019-04-07T12:25:00.744Z,48.78
2019-04-07T12:29:58.607Z,48.73
2019-04-07T12:35:04.237Z,51.32
2019-04-07T12:40:03.257Z,51.08
2019-04-07T12:45:10.061Z,51.63
2019-04-07T12:50:15.514Z,50.66
2019-04-07T12:55:11.962Z,51.38
2019-04-07T13:00:25.172Z,51.99
2019-04-07T13:05:30.440Z,52.58
2019-04-07T13:10:30.242Z,49.94
2019-04-07T13:15:45.482Z,49.32
2019-04-07T13:20:55.343Z,49.15
2019-04-07T13:25:55.007Z,50.70
2019-04-07T13:30:50.398Z,50.98
2019-04-07T13:35:46.612Z,51.62
2019-04-07T13:40:59.506Z,52.08
2019-04-07T13:46:19.992Z,51.53
2019-04-07T13:51:26.880Z,52.24
2019-04-07T13:56:27.181Z,52.92
2019-04-07T14:01:23.429Z,53.18
2019-04-07T14:06:36.239Z,53.80
2019-04-07T14:11:32.790Z,54.44
2019-04-07T14:16:46.416Z,53.94
2019-04-07T14:21:47.305Z,54.91
2019-04-07T14:26:48.956Z,53.78
2019-04-07T14:31:54.082Z,52.80
2019-04-07T14:37:05.380Z,52.58
2019-04-07T14:42:06.713Z,52.34
2019-04-07T14:47:16.755Z,52.20
2019-04-07T14:52:19.866Z,52.04
2019-04-07T14:57:16.968Z,51.28
2019-04-07T15:02:12.783Z,51.14
2019-04-07T15:07:12.058Z,51.04
2019-04-07T15:12:17.091Z,51.69
2019-04-07T15:17:05.782Z,50.94
2019-04-07T15:22:02.315Z,50.50
2019-04-07T15:26:57.780Z,50.93
2019-04-07T15:31:53.166Z,51.93
2019-04-07T15:36:49.720Z,52.51
2019-04-07T15:41:45.480Z,51.68
2019-04-07T15:46:41.505Z,51.81
2019-04-07T15:51:36.257Z,53.44
2019-04-07T15:56:31.458Z,53.29
2019-04-07T16:01:26.902Z,52.83
2019-04-07T16:06:21.888Z,53.02
2019-04-07T16:11:17.652Z,53.33
2019-04-07T16:16:13.445Z,53.32
2019-04-07T16:21:09.482Z,53.21
2019-04-07T16:26:04.860Z,52.83
2019-04-07T16:30:59.643Z,54.14
2019-04-07T16:35:56.322Z,54.69
2019-04-07T16:40:50.817Z,54.45
2019-04-07T16:45:46.290Z,54.36
2019-04-07T16:50:41.932Z,55.07
2019-04-07T16:55:41.579Z,54.39
2019-04-07T17:00:36.538Z,55.15
2019-04-07T17:05:32.206Z,55.13
2019-04-07T17:10:32.351Z,55.62
2019-04-07T17:15:23.767Z,56.20
2019-04-07T17:20:18.967Z,56.51
2019-04-07T17:25:15.087Z,57.19
2019-04-07T17:30:23.644Z,57.34
2019-04-07T17:35:18.920Z,57.58
2019-04-07T17:40:17.184Z,58.40
2019-04-07T17:45:29.733Z,58.89
2019-04-07T17:50:42.334Z,59.60
2019-04-07T17:55:36.851Z,59.88
2019-04-07T18:00:50.665Z,60.90
2019-04-07T18:05:45.652Z,62.01
2019-04-07T18:10:50.717Z,62.87
2019-04-07T18:15:54.366Z,62.78
2019-04-07T18:20:57.137Z,62.93
2019-04-07T18:26:10.617Z,63.38
2019-04-07T18:31:22.627Z,62.95
2019-04-07T18:36:37.759Z,62.35
2019-04-07T18:41:50.533Z,62.76
2019-04-07T18:46:50.132Z,63.56
2019-04-07T18:51:51.840Z,64.11
2019-04-07T18:56:49.558Z,64.72
2019-04-07T19:01:52.237Z,65.93
2019-04-07T19:07:02.205Z,66.21
2019-04-07T19:12:07.969Z,66.98
2019-04-07T19:17:17.178Z,67.38
2019-04-07T19:22:26.700Z,67.77
2019-04-07T19:27:39.013Z,68.41
2019-04-07T19:32:33.408Z,68.57
2019-04-07T19:37:32.544Z,68.60
2019-04-07T19:42:31.832Z,69.14
2019-04-07T19:47:32.845Z,69.29
2019-04-07T19:52:42.911Z,69.05
2019-04-07T19:57:42.726Z,69.20
2019-04-07T20:02:44.815Z,69.14
2019-04-07T20:08:08.190Z,69.20
2019-04-07T20:13:16.361Z,69.30
2019-04-07T20:18:16.665Z,69.35
2019-04-07T20:23:19.780Z,69.22
2019-04-07T20:28:30.253Z,69.32
2019-04-07T20:33:23.517Z,69.19
2019-04-07T20:38:25.521Z,69.40
2019-04-07T20:43:21.735Z,69.46
2019-04-07T20:48:17.526Z,69.50
2019-04-07T20:53:23.204Z,69.88
2019-04-07T20:58:43.754Z,69.86
2019-04-07T21:03:27.957Z,70.00
2019-04-07T21:08:30.217Z,69.63
2019-04-07T21:13:25.638Z,69.88
2019-04-07T21:18:34.940Z,70.01
2019-04-07T21:23:31.621Z,70.19
2019-04-07T21:28:43.919Z,70.49
2019-04-07T21:33:41.305Z,70.96
2019-04-07T21:38:45.402Z,70.62
2019-04-07T21:43:42.678Z,71.03
2019-04-07T21:48:39.185Z,72.21
2019-04-07T21:53:35.486Z,73.02
2019-04-07T21:58:48.630Z,72.84
2019-04-07T22:04:00.947Z,73.11
2019-04-07T22:09:00.301Z,73.37
2019-04-07T22:13:55.407Z,73.35
2019-04-07T22:18:51.204Z,73.72
2019-04-07T22:23:46.431Z,73.75
2019-04-07T22:28:41.571Z,73.57
2019-04-07T22:33:36.861Z,73.13
2019-04-07T22:38:31.771Z,73.38
2019-04-07T22:43:26.510Z,73.35
2019-04-07T22:48:25.289Z,73.66
2019-04-07T22:53:21.299Z,73.98
2019-04-07T22:58:13.940Z,74.34
2019-04-07T23:03:08.689Z,74.71
2019-04-07T23:08:04.041Z,75.43
2019-04-07T23:12:59.406Z,76.51
2019-04-07T23:17:54.361Z,77.40
2019-04-07T23:22:49.943Z,78.09
2019-04-07T23:27:45.585Z,77.87
2019-04-07T23:32:41.421Z,77.78
2019-04-07T23:37:36.957Z,77.85
2019-04-07T23:42:32.670Z,77.76
2019-04-07T23:47:27.350Z,77.46
2019-04-07T23:52:22.939Z,78.17
2019-04-07T23:57:17.811Z,78.96
